sensor_id;sensor_type;location;lat;lon;timestamp;P1;durP1;ratioP1;P2;durP2;ratioP2
18188;SDS011;9219;50.396;8.546;2023-08-12T00:03:56;3.43;;;2.93;;
18188;SDS011;9219;50.396;8.546;2023-08-12T00:06:24;4.37;;;3.50;;
18188;SDS011;9219;50.396;8.546;2023-08-12T00:08:51;5.87;;;3.03;;
18188;SDS011;9219;50.396;8.546;2023-08-12T00:11:19;4.80;;;3.67;;
18188;SDS011;9219;50.396;8.546;2023-08-12T00:13:46;5.20;;;3.03;;
18188;SDS011;9219;50.396;8.546;2023-08-12T00:16:17;7.13;;;2.83;;
18188;SDS011;9219;50.396;8.546;2023-08-12T00:18:44;5.10;;;2.67;;
18188;SDS011;9219;50.396;8.546;2023-08-12T00:21:12;9.73;;;3.30;;
18188;SDS011;9219;50.396;8.546;2023-08-12T00:29:12;2.87;;;2.50;;
18188;SDS011;9219;50.396;8.546;2023-08-12T00:31:40;4.53;;;3.00;;
18188;SDS011;9219;50.396;8.546;2023-08-12T00:34:07;4.97;;;3.53;;
18188;SDS011;9219;50.396;8.546;2023-08-12T00:36:34;3.37;;;2.70;;
18188;SDS011;9219;50.396;8.546;2023-08-12T00:39:02;3.97;;;3.43;;
18188;SDS011;9219;50.396;8.546;2023-08-12T00:41:30;8.57;;;3.67;;
18188;SDS011;9219;50.396;8.546;2023-08-12T00:43:58;4.73;;;3.43;;
18188;SDS011;9219;50.396;8.546;2023-08-12T00:49:16;6.17;;;3.40;;
18188;SDS011;9219;50.396;8.546;2023-08-12T00:51:44;5.93;;;3.20;;
18188;SDS011;9219;50.396;8.546;2023-08-12T00:54:13;14.00;;;3.87;;
18188;SDS011;9219;50.396;8.546;2023-08-12T00:56:42;3.70;;;3.07;;
18188;SDS011;9219;50.396;8.546;2023-08-12T00:59:09;6.20;;;3.50;;
18188;SDS011;9219;50.396;8.546;2023-08-12T01:01:39;5.80;;;3.30;;
18188;SDS011;9219;50.396;8.546;2023-08-12T01:04:08;5.10;;;3.17;;
18188;SDS011;9219;50.396;8.546;2023-08-12T01:06:36;3.93;;;3.13;;
18188;SDS011;9219;50.396;8.546;2023-08-12T01:10:29;3.93;;;3.10;;
18188;SDS011;9219;50.396;8.546;2023-08-12T01:13:05;8.83;;;3.23;;
18188;SDS011;9219;50.396;8.546;2023-08-12T01:15:39;3.60;;;3.10;;
18188;SDS011;9219;50.396;8.546;2023-08-12T01:18:09;4.43;;;2.90;;
18188;SDS011;9219;50.396;8.546;2023-08-12T01:20:37;3.20;;;2.90;;
18188;SDS011;9219;50.396;8.546;2023-08-12T01:23:08;4.03;;;2.60;;
18188;SDS011;9219;50.396;8.546;2023-08-12T01:25:36;3.03;;;2.70;;
18188;SDS011;9219;50.396;8.546;2023-08-12T01:31:27;6.33;;;3.23;;
18188;SDS011;9219;50.396;8.546;2023-08-12T01:34:02;3.73;;;3.27;;
18188;SDS011;9219;50.396;8.546;2023-08-12T01:36:37;4.10;;;3.17;;
18188;SDS011;9219;50.396;8.546;2023-08-12T01:39:07;6.57;;;3.00;;
18188;SDS011;9219;50.396;8.546;2023-08-12T01:41:36;6.10;;;2.80;;
18188;SDS011;9219;50.396;8.546;2023-08-12T01:44:04;4.23;;;3.20;;
18188;SDS011;9219;50.396;8.546;2023-08-12T01:46:33;3.20;;;2.40;;
18188;SDS011;9219;50.396;8.546;2023-08-12T01:56:28;8.20;;;3.97;;
18188;SDS011;9219;50.396;8.546;2023-08-12T01:58:55;3.27;;;2.80;;
18188;SDS011;9219;50.396;8.546;2023-08-12T02:01:23;6.17;;;2.93;;
18188;SDS011;9219;50.396;8.546;2023-08-12T02:03:50;4.47;;;3.40;;
18188;SDS011;9219;50.396;8.546;2023-08-12T02:06:17;5.30;;;2.80;;
18188;SDS011;9219;50.396;8.546;2023-08-12T02:08:45;5.97;;;3.43;;
18188;SDS011;9219;50.396;8.546;2023-08-12T02:11:12;4.57;;;3.17;;
18188;SDS011;9219;50.396;8.546;2023-08-12T02:20:00;5.07;;;3.90;;
18188;SDS011;9219;50.396;8.546;2023-08-12T02:22:28;5.77;;;4.07;;
18188;SDS011;9219;50.396;8.546;2023-08-12T02:24:56;4.20;;;3.53;;
18188;SDS011;9219;50.396;8.546;2023-08-12T02:27:23;5.67;;;3.73;;
18188;SDS011;9219;50.396;8.546;2023-08-12T02:29:51;6.80;;;4.10;;
18188;SDS011;9219;50.396;8.546;2023-08-12T02:32:18;6.43;;;3.73;;
18188;SDS011;9219;50.396;8.546;2023-08-12T02:34:45;6.63;;;4.40;;
18188;SDS011;9219;50.396;8.546;2023-08-12T02:37:13;13.80;;;4.07;;
18188;SDS011;9219;50.396;8.546;2023-08-12T02:40:56;6.37;;;4.50;;
18188;SDS011;9219;50.396;8.546;2023-08-12T02:43:24;6.23;;;5.00;;
18188;SDS011;9219;50.396;8.546;2023-08-12T02:45:51;6.20;;;5.23;;
18188;SDS011;9219;50.396;8.546;2023-08-12T02:48:19;7.33;;;4.70;;
18188;SDS011;9219;50.396;8.546;2023-08-12T02:50:47;9.97;;;5.90;;
18188;SDS011;9219;50.396;8.546;2023-08-12T02:53:15;10.47;;;7.27;;
18188;SDS011;9219;50.396;8.546;2023-08-12T02:55:44;12.23;;;7.53;;
18188;SDS011;9219;50.396;8.546;2023-08-12T02:58:12;7.67;;;6.70;;
18188;SDS011;9219;50.396;8.546;2023-08-12T03:05:40;12.80;;;9.53;;
18188;SDS011;9219;50.396;8.546;2023-08-12T03:08:09;28.43;;;11.53;;
18188;SDS011;9219;50.396;8.546;2023-08-12T03:10:37;15.30;;;11.87;;
18188;SDS011;9219;50.396;8.546;2023-08-12T03:13:05;20.53;;;12.73;;
18188;SDS011;9219;50.396;8.546;2023-08-12T03:15:32;19.43;;;12.70;;
18188;SDS011;9219;50.396;8.546;2023-08-12T03:17:59;20.97;;;14.47;;
18188;SDS011;9219;50.396;8.546;2023-08-12T03:20:26;26.23;;;17.70;;
18188;SDS011;9219;50.396;8.546;2023-08-12T03:22:54;35.70;;;22.13;;
18188;SDS011;9219;50.396;8.546;2023-08-12T03:26:36;32.63;;;23.47;;
18188;SDS011;9219;50.396;8.546;2023-08-12T03:29:04;36.63;;;24.60;;
18188;SDS011;9219;50.396;8.546;2023-08-12T03:31:31;31.17;;;21.07;;
18188;SDS011;9219;50.396;8.546;2023-08-12T03:34:01;30.53;;;20.80;;
18188;SDS011;9219;50.396;8.546;2023-08-12T03:36:29;31.47;;;21.97;;
18188;SDS011;9219;50.396;8.546;2023-08-12T03:38:56;32.13;;;21.77;;
18188;SDS011;9219;50.396;8.546;2023-08-12T03:41:23;51.93;;;24.00;;
18188;SDS011;9219;50.396;8.546;2023-08-12T03:46:48;77.60;;;27.10;;
18188;SDS011;9219;50.396;8.546;2023-08-12T03:49:15;43.27;;;23.87;;
18188;SDS011;9219;50.396;8.546;2023-08-12T03:51:46;29.03;;;20.23;;
18188;SDS011;9219;50.396;8.546;2023-08-12T03:54:13;28.27;;;17.63;;
18188;SDS011;9219;50.396;8.546;2023-08-12T03:56:40;25.27;;;17.63;;
18188;SDS011;9219;50.396;8.546;2023-08-12T03:59:07;21.57;;;17.27;;
18188;SDS011;9219;50.396;8.546;2023-08-12T04:01:34;13.73;;;10.40;;
18188;SDS011;9219;50.396;8.546;2023-08-12T04:06:43;20.10;;;15.27;;
18188;SDS011;9219;50.396;8.546;2023-08-12T04:09:10;15.70;;;12.30;;
18188;SDS011;9219;50.396;8.546;2023-08-12T04:11:37;15.17;;;9.20;;
18188;SDS011;9219;50.396;8.546;2023-08-12T04:14:06;16.37;;;12.50;;
18188;SDS011;9219;50.396;8.546;2023-08-12T04:16:33;13.83;;;11.10;;
18188;SDS011;9219;50.396;8.546;2023-08-12T04:19:01;13.07;;;9.83;;
18188;SDS011;9219;50.396;8.546;2023-08-12T04:21:28;13.53;;;11.63;;
18188;SDS011;9219;50.396;8.546;2023-08-12T04:23:56;12.83;;;11.03;;
18188;SDS011;9219;50.396;8.546;2023-08-12T04:31:28;10.70;;;9.17;;
18188;SDS011;9219;50.396;8.546;2023-08-12T04:33:55;12.57;;;10.53;;
18188;SDS011;9219;50.396;8.546;2023-08-12T04:36:22;6.43;;;5.77;;
18188;SDS011;9219;50.396;8.546;2023-08-12T04:38:49;5.50;;;4.13;;
18188;SDS011;9219;50.396;8.546;2023-08-12T04:41:17;9.27;;;5.17;;
18188;SDS011;9219;50.396;8.546;2023-08-12T04:43:44;7.13;;;4.03;;
18188;SDS011;9219;50.396;8.546;2023-08-12T04:46:11;4.43;;;3.23;;
18188;SDS011;9219;50.396;8.546;2023-08-12T04:51:25;3.10;;;2.80;;
18188;SDS011;9219;50.396;8.546;2023-08-12T04:53:53;4.00;;;3.60;;
18188;SDS011;9219;50.396;8.546;2023-08-12T04:56:21;4.90;;;3.30;;
18188;SDS011;9219;50.396;8.546;2023-08-12T04:58:49;4.07;;;3.10;;
18188;SDS011;9219;50.396;8.546;2023-08-12T05:01:16;4.60;;;3.70;;
18188;SDS011;9219;50.396;8.546;2023-08-12T05:03:44;6.60;;;3.97;;
18188;SDS011;9219;50.396;8.546;2023-08-12T05:06:11;5.53;;;4.80;;
18188;SDS011;9219;50.396;8.546;2023-08-12T05:14:03;9.93;;;8.27;;
18188;SDS011;9219;50.396;8.546;2023-08-12T05:16:30;14.10;;;11.10;;
18188;SDS011;9219;50.396;8.546;2023-08-12T05:18:57;24.83;;;11.20;;
18188;SDS011;9219;50.396;8.546;2023-08-12T05:21:25;26.53;;;12.03;;
18188;SDS011;9219;50.396;8.546;2023-08-12T05:23:52;11.07;;;9.23;;
18188;SDS011;9219;50.396;8.546;2023-08-12T05:26:19;10.57;;;8.13;;
18188;SDS011;9219;50.396;8.546;2023-08-12T05:28:47;10.43;;;7.67;;
18188;SDS011;9219;50.396;8.546;2023-08-12T05:34:16;7.90;;;6.93;;
18188;SDS011;9219;50.396;8.546;2023-08-12T05:36:44;6.07;;;5.47;;
18188;SDS011;9219;50.396;8.546;2023-08-12T05:39:11;8.00;;;5.60;;
18188;SDS011;9219;50.396;8.546;2023-08-12T05:41:38;6.73;;;5.97;;
18188;SDS011;9219;50.396;8.546;2023-08-12T05:44:06;7.80;;;6.27;;
18188;SDS011;9219;50.396;8.546;2023-08-12T05:46:33;7.60;;;5.80;;
18188;SDS011;9219;50.396;8.546;2023-08-12T05:49:01;10.43;;;6.50;;
18188;SDS011;9219;50.396;8.546;2023-08-12T05:54:44;9.83;;;7.70;;
18188;SDS011;9219;50.396;8.546;2023-08-12T05:57:12;6.87;;;6.10;;
18188;SDS011;9219;50.396;8.546;2023-08-12T05:59:39;8.37;;;6.73;;
18188;SDS011;9219;50.396;8.546;2023-08-12T06:02:10;12.93;;;7.33;;
18188;SDS011;9219;50.396;8.546;2023-08-12T06:04:38;9.83;;;7.93;;
18188;SDS011;9219;50.396;8.546;2023-08-12T06:07:06;10.53;;;8.83;;
18188;SDS011;9219;50.396;8.546;2023-08-12T06:09:33;11.87;;;7.80;;
18188;SDS011;9219;50.396;8.546;2023-08-12T06:12:02;13.37;;;10.37;;
18188;SDS011;9219;50.396;8.546;2023-08-12T06:14:58;18.80;;;12.00;;
18188;SDS011;9219;50.396;8.546;2023-08-12T06:17:27;21.30;;;11.63;;
18188;SDS011;9219;50.396;8.546;2023-08-12T06:19:55;28.03;;;10.80;;
18188;SDS011;9219;50.396;8.546;2023-08-12T06:22:25;18.60;;;11.43;;
18188;SDS011;9219;50.396;8.546;2023-08-12T06:24:54;33.23;;;10.00;;
18188;SDS011;9219;50.396;8.546;2023-08-12T06:27:23;27.93;;;10.80;;
18188;SDS011;9219;50.396;8.546;2023-08-12T06:29:54;137.90;;;14.20;;
18188;SDS011;9219;50.396;8.546;2023-08-12T06:37:09;54.73;;;12.13;;
18188;SDS011;9219;50.396;8.546;2023-08-12T06:39:36;56.07;;;11.60;;
18188;SDS011;9219;50.396;8.546;2023-08-12T06:42:04;28.83;;;12.33;;
18188;SDS011;9219;50.396;8.546;2023-08-12T06:44:32;27.30;;;14.97;;
18188;SDS011;9219;50.396;8.546;2023-08-12T06:47:00;20.33;;;13.00;;
18188;SDS011;9219;50.396;8.546;2023-08-12T06:49:28;20.57;;;13.43;;
18188;SDS011;9219;50.396;8.546;2023-08-12T06:51:56;20.40;;;13.47;;
18188;SDS011;9219;50.396;8.546;2023-08-12T06:57:04;19.40;;;13.83;;
18188;SDS011;9219;50.396;8.546;2023-08-12T06:59:32;18.63;;;13.07;;
18188;SDS011;9219;50.396;8.546;2023-08-12T07:02:00;19.37;;;14.77;;
18188;SDS011;9219;50.396;8.546;2023-08-12T07:04:29;21.63;;;13.43;;
18188;SDS011;9219;50.396;8.546;2023-08-12T07:06:56;20.33;;;14.33;;
18188;SDS011;9219;50.396;8.546;2023-08-12T07:09:25;22.03;;;15.30;;
18188;SDS011;9219;50.396;8.546;2023-08-12T07:11:54;18.57;;;12.87;;
18188;SDS011;9219;50.396;8.546;2023-08-12T07:17:03;24.73;;;15.37;;
18188;SDS011;9219;50.396;8.546;2023-08-12T07:19:30;21.83;;;15.33;;
18188;SDS011;9219;50.396;8.546;2023-08-12T07:21:57;19.77;;;14.27;;
18188;SDS011;9219;50.396;8.546;2023-08-12T07:24:26;21.93;;;14.90;;
18188;SDS011;9219;50.396;8.546;2023-08-12T07:26:53;18.73;;;13.77;;
18188;SDS011;9219;50.396;8.546;2023-08-12T07:29:20;16.67;;;13.53;;
18188;SDS011;9219;50.396;8.546;2023-08-12T07:31:48;18.17;;;14.27;;
18188;SDS011;9219;50.396;8.546;2023-08-12T07:39:20;17.67;;;13.80;;
18188;SDS011;9219;50.396;8.546;2023-08-12T07:41:48;13.77;;;10.93;;
18188;SDS011;9219;50.396;8.546;2023-08-12T07:44:15;18.47;;;13.37;;
18188;SDS011;9219;50.396;8.546;2023-08-12T07:46:43;17.03;;;12.00;;
18188;SDS011;9219;50.396;8.546;2023-08-12T07:49:10;12.07;;;9.90;;
18188;SDS011;9219;50.396;8.546;2023-08-12T07:51:37;13.50;;;8.23;;
18188;SDS011;9219;50.396;8.546;2023-08-12T07:54:05;10.13;;;8.47;;
18188;SDS011;9219;50.396;8.546;2023-08-12T07:56:34;15.80;;;11.57;;
18188;SDS011;9219;50.396;8.546;2023-08-12T08:04:08;13.37;;;11.43;;
18188;SDS011;9219;50.396;8.546;2023-08-12T08:06:35;11.47;;;10.27;;
18188;SDS011;9219;50.396;8.546;2023-08-12T08:09:03;12.63;;;11.33;;
18188;SDS011;9219;50.396;8.546;2023-08-12T08:11:31;9.67;;;8.67;;
18188;SDS011;9219;50.396;8.546;2023-08-12T08:13:58;11.23;;;9.57;;
18188;SDS011;9219;50.396;8.546;2023-08-12T08:16:26;15.70;;;12.17;;
18188;SDS011;9219;50.396;8.546;2023-08-12T08:18:54;13.77;;;7.27;;
18188;SDS011;9219;50.396;8.546;2023-08-12T08:23:59;5.97;;;4.43;;
18188;SDS011;9219;50.396;8.546;2023-08-12T08:26:27;4.37;;;3.90;;
18188;SDS011;9219;50.396;8.546;2023-08-12T08:28:55;4.97;;;4.10;;
18188;SDS011;9219;50.396;8.546;2023-08-12T08:31:22;4.70;;;3.47;;
18188;SDS011;9219;50.396;8.546;2023-08-12T08:33:50;5.07;;;4.03;;
18188;SDS011;9219;50.396;8.546;2023-08-12T08:36:17;10.20;;;7.93;;
18188;SDS011;9219;50.396;8.546;2023-08-12T08:38:44;11.67;;;8.20;;
18188;SDS011;9219;50.396;8.546;2023-08-12T08:46:49;15.40;;;9.17;;
18188;SDS011;9219;50.396;8.546;2023-08-12T08:49:18;12.70;;;7.63;;
18188;SDS011;9219;50.396;8.546;2023-08-12T08:51:47;10.97;;;9.23;;
18188;SDS011;9219;50.396;8.546;2023-08-12T08:54:15;11.30;;;9.53;;
18188;SDS011;9219;50.396;8.546;2023-08-12T08:56:42;13.77;;;8.17;;
18188;SDS011;9219;50.396;8.546;2023-08-12T08:59:17;9.90;;;7.80;;
18188;SDS011;9219;50.396;8.546;2023-08-12T09:01:45;9.70;;;8.47;;
18188;SDS011;9219;50.396;8.546;2023-08-12T09:04:17;9.90;;;8.40;;
18188;SDS011;9219;50.396;8.546;2023-08-12T09:12:17;14.30;;;10.67;;
18188;SDS011;9219;50.396;8.546;2023-08-12T09:14:46;10.97;;;9.27;;
18188;SDS011;9219;50.396;8.546;2023-08-12T09:17:14;13.10;;;9.43;;
18188;SDS011;9219;50.396;8.546;2023-08-12T09:19:42;10.23;;;8.33;;
18188;SDS011;9219;50.396;8.546;2023-08-12T09:22:09;6.93;;;6.23;;
18188;SDS011;9219;50.396;8.546;2023-08-12T09:24:39;9.30;;;6.70;;
18188;SDS011;9219;50.396;8.546;2023-08-12T09:27:06;5.57;;;4.97;;
18188;SDS011;9219;50.396;8.546;2023-08-12T09:29:35;7.30;;;5.77;;
18188;SDS011;9219;50.396;8.546;2023-08-12T09:35:45;4.57;;;3.90;;
18188;SDS011;9219;50.396;8.546;2023-08-12T09:38:13;5.63;;;3.57;;
18188;SDS011;9219;50.396;8.546;2023-08-12T09:40:41;3.97;;;3.27;;
18188;SDS011;9219;50.396;8.546;2023-08-12T09:43:09;3.77;;;3.23;;
18188;SDS011;9219;50.396;8.546;2023-08-12T09:45:38;4.57;;;3.47;;
18188;SDS011;9219;50.396;8.546;2023-08-12T09:48:06;3.87;;;3.57;;
18188;SDS011;9219;50.396;8.546;2023-08-12T09:57:43;3.67;;;3.37;;
18188;SDS011;9219;50.396;8.546;2023-08-12T10:00:14;7.17;;;3.90;;
18188;SDS011;9219;50.396;8.546;2023-08-12T10:02:44;6.47;;;4.90;;
18188;SDS011;9219;50.396;8.546;2023-08-12T10:05:40;5.67;;;3.70;;
18188;SDS011;9219;50.396;8.546;2023-08-12T10:08:09;5.17;;;4.67;;
18188;SDS011;9219;50.396;8.546;2023-08-12T10:10:39;4.53;;;3.80;;
18188;SDS011;9219;50.396;8.546;2023-08-12T10:13:11;6.07;;;3.40;;
18188;SDS011;9219;50.396;8.546;2023-08-12T10:18:20;6.23;;;3.50;;
18188;SDS011;9219;50.396;8.546;2023-08-12T10:20:50;11.67;;;4.53;;
18188;SDS011;9219;50.396;8.546;2023-08-12T10:23:20;6.67;;;3.83;;
18188;SDS011;9219;50.396;8.546;2023-08-12T10:25:48;3.03;;;2.60;;
18188;SDS011;9219;50.396;8.546;2023-08-12T10:28:20;4.70;;;3.37;;
18188;SDS011;9219;50.396;8.546;2023-08-12T10:30:48;4.87;;;3.90;;
18188;SDS011;9219;50.396;8.546;2023-08-12T10:33:16;4.73;;;3.00;;
18188;SDS011;9219;50.396;8.546;2023-08-12T10:40:51;6.60;;;2.70;;
18188;SDS011;9219;50.396;8.546;2023-08-12T10:43:19;3.63;;;2.40;;
18188;SDS011;9219;50.396;8.546;2023-08-12T10:45:47;5.13;;;2.87;;
18188;SDS011;9219;50.396;8.546;2023-08-12T10:48:21;6.53;;;2.50;;
18188;SDS011;9219;50.396;8.546;2023-08-12T10:50:49;3.23;;;2.83;;
18188;SDS011;9219;50.396;8.546;2023-08-12T10:53:21;4.57;;;2.97;;
18188;SDS011;9219;50.396;8.546;2023-08-12T10:55:55;3.77;;;3.37;;
18188;SDS011;9219;50.396;8.546;2023-08-12T11:01:50;5.43;;;3.57;;
18188;SDS011;9219;50.396;8.546;2023-08-12T11:04:20;10.70;;;4.37;;
18188;SDS011;9219;50.396;8.546;2023-08-12T11:06:47;5.60;;;4.43;;
18188;SDS011;9219;50.396;8.546;2023-08-12T11:09:15;4.60;;;3.67;;
18188;SDS011;9219;50.396;8.546;2023-08-12T11:12:03;6.07;;;3.53;;
18188;SDS011;9219;50.396;8.546;2023-08-12T11:14:30;5.40;;;3.53;;
18188;SDS011;9219;50.396;8.546;2023-08-12T11:16:59;4.90;;;4.27;;
18188;SDS011;9219;50.396;8.546;2023-08-12T11:22:17;5.57;;;4.57;;
18188;SDS011;9219;50.396;8.546;2023-08-12T11:24:45;6.07;;;4.90;;
18188;SDS011;9219;50.396;8.546;2023-08-12T11:27:14;7.13;;;4.73;;
18188;SDS011;9219;50.396;8.546;2023-08-12T11:29:42;5.97;;;4.37;;
18188;SDS011;9219;50.396;8.546;2023-08-12T11:32:09;5.80;;;4.63;;
18188;SDS011;9219;50.396;8.546;2023-08-12T11:34:38;4.73;;;4.13;;
18188;SDS011;9219;50.396;8.546;2023-08-12T11:37:06;6.17;;;3.87;;
18188;SDS011;9219;50.396;8.546;2023-08-12T11:39:36;3.87;;;3.40;;
18188;SDS011;9219;50.396;8.546;2023-08-12T11:42:49;4.23;;;3.50;;
18188;SDS011;9219;50.396;8.546;2023-08-12T11:45:19;5.03;;;4.00;;
18188;SDS011;9219;50.396;8.546;2023-08-12T11:47:47;5.27;;;3.17;;
18188;SDS011;9219;50.396;8.546;2023-08-12T11:50:18;3.90;;;3.13;;
18188;SDS011;9219;50.396;8.546;2023-08-12T11:52:46;5.33;;;3.83;;
18188;SDS011;9219;50.396;8.546;2023-08-12T11:55:14;4.90;;;3.40;;
18188;SDS011;9219;50.396;8.546;2023-08-12T11:57:43;5.63;;;3.60;;
18188;SDS011;9219;50.396;8.546;2023-08-12T12:05:12;5.17;;;3.43;;
18188;SDS011;9219;50.396;8.546;2023-08-12T12:07:42;2.70;;;2.40;;
18188;SDS011;9219;50.396;8.546;2023-08-12T12:10:12;3.20;;;2.90;;
18188;SDS011;9219;50.396;8.546;2023-08-12T12:12:41;3.77;;;2.63;;
18188;SDS011;9219;50.396;8.546;2023-08-12T12:15:10;3.70;;;2.37;;
18188;SDS011;9219;50.396;8.546;2023-08-12T12:17:40;3.30;;;2.67;;
18188;SDS011;9219;50.396;8.546;2023-08-12T12:20:08;3.33;;;2.80;;
18188;SDS011;9219;50.396;8.546;2023-08-12T12:27:48;4.23;;;2.70;;
18188;SDS011;9219;50.396;8.546;2023-08-12T12:30:18;3.20;;;2.80;;
18188;SDS011;9219;50.396;8.546;2023-08-12T12:32:45;3.63;;;2.87;;
18188;SDS011;9219;50.396;8.546;2023-08-12T12:35:13;3.50;;;2.83;;
18188;SDS011;9219;50.396;8.546;2023-08-12T12:37:40;5.03;;;2.87;;
18188;SDS011;9219;50.396;8.546;2023-08-12T12:40:09;6.57;;;2.60;;
18188;SDS011;9219;50.396;8.546;2023-08-12T12:42:37;4.03;;;2.30;;
18188;SDS011;9219;50.396;8.546;2023-08-12T12:45:08;3.93;;;2.30;;
18188;SDS011;9219;50.396;8.546;2023-08-12T12:51:41;2.83;;;2.33;;
18188;SDS011;9219;50.396;8.546;2023-08-12T12:54:09;2.50;;;2.30;;
18188;SDS011;9219;50.396;8.546;2023-08-12T12:56:36;3.30;;;1.57;;
18188;SDS011;9219;50.396;8.546;2023-08-12T12:59:03;2.20;;;2.00;;
18188;SDS011;9219;50.396;8.546;2023-08-12T13:01:31;3.00;;;2.17;;
18188;SDS011;9219;50.396;8.546;2023-08-12T13:03:59;4.73;;;2.00;;
18188;SDS011;9219;50.396;8.546;2023-08-12T13:06:26;7.20;;;3.70;;
18188;SDS011;9219;50.396;8.546;2023-08-12T13:08:55;2.50;;;2.20;;
18188;SDS011;9219;50.396;8.546;2023-08-12T13:12:01;3.90;;;2.60;;
18188;SDS011;9219;50.396;8.546;2023-08-12T13:14:29;2.50;;;2.10;;
18188;SDS011;9219;50.396;8.546;2023-08-12T13:16:59;8.80;;;2.20;;
18188;SDS011;9219;50.396;8.546;2023-08-12T13:19:26;3.03;;;2.30;;
18188;SDS011;9219;50.396;8.546;2023-08-12T13:21:53;4.23;;;2.30;;
18188;SDS011;9219;50.396;8.546;2023-08-12T13:24:21;2.50;;;2.13;;
18188;SDS011;9219;50.396;8.546;2023-08-12T13:26:48;3.00;;;1.97;;
18188;SDS011;9219;50.396;8.546;2023-08-12T13:31:59;2.53;;;2.33;;
18188;SDS011;9219;50.396;8.546;2023-08-12T13:34:26;3.27;;;2.10;;
18188;SDS011;9219;50.396;8.546;2023-08-12T13:36:54;2.20;;;2.00;;
18188;SDS011;9219;50.396;8.546;2023-08-12T13:39:21;2.60;;;1.80;;
18188;SDS011;9219;50.396;8.546;2023-08-12T13:41:48;2.43;;;2.10;;
18188;SDS011;9219;50.396;8.546;2023-08-12T13:44:16;5.23;;;2.10;;
18188;SDS011;9219;50.396;8.546;2023-08-12T13:46:44;2.13;;;1.93;;
18188;SDS011;9219;50.396;8.546;2023-08-12T13:49:13;6.60;;;2.20;;
18188;SDS011;9219;50.396;8.546;2023-08-12T13:56:44;2.20;;;1.77;;
18188;SDS011;9219;50.396;8.546;2023-08-12T13:59:12;1.93;;;1.70;;
18188;SDS011;9219;50.396;8.546;2023-08-12T14:01:39;2.47;;;1.60;;
18188;SDS011;9219;50.396;8.546;2023-08-12T14:04:09;2.90;;;1.80;;
18188;SDS011;9219;50.396;8.546;2023-08-12T14:06:36;5.33;;;2.10;;
18188;SDS011;9219;50.396;8.546;2023-08-12T14:09:06;2.00;;;1.80;;
18188;SDS011;9219;50.396;8.546;2023-08-12T14:11:33;2.50;;;1.80;;
18188;SDS011;9219;50.396;8.546;2023-08-12T14:14:02;3.07;;;1.80;;
18188;SDS011;9219;50.396;8.546;2023-08-12T14:17:57;4.07;;;2.03;;
18188;SDS011;9219;50.396;8.546;2023-08-12T14:20:24;2.40;;;1.67;;
18188;SDS011;9219;50.396;8.546;2023-08-12T14:22:52;2.90;;;2.40;;
18188;SDS011;9219;50.396;8.546;2023-08-12T14:25:19;2.50;;;1.93;;
18188;SDS011;9219;50.396;8.546;2023-08-12T14:27:49;2.43;;;1.90;;
18188;SDS011;9219;50.396;8.546;2023-08-12T14:30:17;2.47;;;1.53;;
18188;SDS011;9219;50.396;8.546;2023-08-12T14:32:46;5.70;;;2.20;;
18188;SDS011;9219;50.396;8.546;2023-08-12T14:35:17;4.40;;;2.03;;
18188;SDS011;9219;50.396;8.546;2023-08-12T14:43:19;2.37;;;2.17;;
18188;SDS011;9219;50.396;8.546;2023-08-12T14:45:47;4.97;;;1.87;;
18188;SDS011;9219;50.396;8.546;2023-08-12T14:48:16;4.33;;;2.30;;
18188;SDS011;9219;50.396;8.546;2023-08-12T14:50:44;3.50;;;2.60;;
18188;SDS011;9219;50.396;8.546;2023-08-12T14:53:11;3.30;;;2.40;;
18188;SDS011;9219;50.396;8.546;2023-08-12T14:55:39;5.70;;;2.40;;
18188;SDS011;9219;50.396;8.546;2023-08-12T14:58:07;6.90;;;2.57;;
18188;SDS011;9219;50.396;8.546;2023-08-12T15:00:35;8.53;;;3.33;;
18188;SDS011;9219;50.396;8.546;2023-08-12T15:06:58;5.73;;;2.53;;
18188;SDS011;9219;50.396;8.546;2023-08-12T15:09:26;3.70;;;2.70;;
18188;SDS011;9219;50.396;8.546;2023-08-12T15:11:53;2.60;;;2.03;;
18188;SDS011;9219;50.396;8.546;2023-08-12T15:14:21;3.77;;;2.53;;
18188;SDS011;9219;50.396;8.546;2023-08-12T15:16:49;6.63;;;2.97;;
18188;SDS011;9219;50.396;8.546;2023-08-12T15:19:17;3.00;;;2.70;;
18188;SDS011;9219;50.396;8.546;2023-08-12T15:21:44;3.53;;;3.13;;
18188;SDS011;9219;50.396;8.546;2023-08-12T15:24:13;9.03;;;3.10;;
18188;SDS011;9219;50.396;8.546;2023-08-12T15:26:56;7.10;;;3.47;;
18188;SDS011;9219;50.396;8.546;2023-08-12T15:29:24;4.50;;;3.60;;
18188;SDS011;9219;50.396;8.546;2023-08-12T15:31:52;4.73;;;3.10;;
18188;SDS011;9219;50.396;8.546;2023-08-12T15:34:21;4.43;;;3.20;;
18188;SDS011;9219;50.396;8.546;2023-08-12T15:36:49;6.07;;;4.30;;
18188;SDS011;9219;50.396;8.546;2023-08-12T15:39:17;18.07;;;3.83;;
18188;SDS011;9219;50.396;8.546;2023-08-12T15:41:45;4.73;;;3.27;;
18188;SDS011;9219;50.396;8.546;2023-08-12T15:46:53;6.87;;;2.67;;
18188;SDS011;9219;50.396;8.546;2023-08-12T15:49:21;7.80;;;3.00;;
18188;SDS011;9219;50.396;8.546;2023-08-12T15:51:48;3.70;;;2.63;;
18188;SDS011;9219;50.396;8.546;2023-08-12T15:54:15;6.23;;;2.53;;
18188;SDS011;9219;50.396;8.546;2023-08-12T15:56:43;3.33;;;2.60;;
18188;SDS011;9219;50.396;8.546;2023-08-12T15:59:10;5.53;;;2.83;;
18188;SDS011;9219;50.396;8.546;2023-08-12T16:01:37;3.53;;;2.70;;
18188;SDS011;9219;50.396;8.546;2023-08-12T16:04:06;5.50;;;2.77;;
18188;SDS011;9219;50.396;8.546;2023-08-12T16:11:39;1.73;;;1.63;;
18188;SDS011;9219;50.396;8.546;2023-08-12T16:14:06;4.53;;;2.40;;
18188;SDS011;9219;50.396;8.546;2023-08-12T16:16:33;3.43;;;1.70;;
18188;SDS011;9219;50.396;8.546;2023-08-12T16:19:01;4.83;;;1.43;;
18188;SDS011;9219;50.396;8.546;2023-08-12T16:21:30;1.73;;;1.27;;
18188;SDS011;9219;50.396;8.546;2023-08-12T16:23:58;1.63;;;1.40;;
18188;SDS011;9219;50.396;8.546;2023-08-12T16:26:25;2.40;;;1.70;;
18188;SDS011;9219;50.396;8.546;2023-08-12T16:28:53;2.03;;;1.60;;
18188;SDS011;9219;50.396;8.546;2023-08-12T16:34:43;3.20;;;1.43;;
18188;SDS011;9219;50.396;8.546;2023-08-12T16:37:11;2.40;;;1.80;;
18188;SDS011;9219;50.396;8.546;2023-08-12T16:39:47;3.63;;;1.53;;
18188;SDS011;9219;50.396;8.546;2023-08-12T16:42:14;3.40;;;1.40;;
18188;SDS011;9219;50.396;8.546;2023-08-12T16:44:42;1.53;;;1.20;;
18188;SDS011;9219;50.396;8.546;2023-08-12T16:47:09;1.97;;;1.30;;
18188;SDS011;9219;50.396;8.546;2023-08-12T16:49:38;1.60;;;1.40;;
18188;SDS011;9219;50.396;8.546;2023-08-12T16:52:06;3.00;;;1.37;;
18188;SDS011;9219;50.396;8.546;2023-08-12T16:59:38;1.40;;;1.00;;
18188;SDS011;9219;50.396;8.546;2023-08-12T17:02:09;3.87;;;1.50;;
18188;SDS011;9219;50.396;8.546;2023-08-12T17:04:37;3.50;;;1.83;;
18188;SDS011;9219;50.396;8.546;2023-08-12T17:07:04;1.80;;;1.50;;
18188;SDS011;9219;50.396;8.546;2023-08-12T17:09:32;2.83;;;1.70;;
18188;SDS011;9219;50.396;8.546;2023-08-12T17:11:59;4.23;;;1.63;;
18188;SDS011;9219;50.396;8.546;2023-08-12T17:14:27;3.67;;;2.00;;
18188;SDS011;9219;50.396;8.546;2023-08-12T17:19:36;3.27;;;2.00;;
18188;SDS011;9219;50.396;8.546;2023-08-12T17:22:05;2.00;;;1.53;;
18188;SDS011;9219;50.396;8.546;2023-08-12T17:24:33;13.50;;;2.83;;
18188;SDS011;9219;50.396;8.546;2023-08-12T17:27:00;3.23;;;1.80;;
18188;SDS011;9219;50.396;8.546;2023-08-12T17:29:27;4.50;;;2.10;;
18188;SDS011;9219;50.396;8.546;2023-08-12T17:31:55;4.50;;;1.83;;
18188;SDS011;9219;50.396;8.546;2023-08-12T17:34:23;4.67;;;2.17;;
18188;SDS011;9219;50.396;8.546;2023-08-12T17:36:52;3.80;;;1.87;;
18188;SDS011;9219;50.396;8.546;2023-08-12T17:46:50;2.23;;;1.80;;
18188;SDS011;9219;50.396;8.546;2023-08-12T17:49:17;3.27;;;1.90;;
18188;SDS011;9219;50.396;8.546;2023-08-12T17:51:44;3.77;;;1.50;;
18188;SDS011;9219;50.396;8.546;2023-08-12T17:54:12;4.13;;;2.27;;
18188;SDS011;9219;50.396;8.546;2023-08-12T17:56:40;4.50;;;2.17;;
18188;SDS011;9219;50.396;8.546;2023-08-12T17:59:07;2.03;;;1.30;;
18188;SDS011;9219;50.396;8.546;2023-08-12T18:01:34;6.10;;;1.87;;
18188;SDS011;9219;50.396;8.546;2023-08-12T18:07:02;2.50;;;1.83;;